TimeCST,TemperatureF,Dew PointF,Humidity,Sea Level PressureIn,VisibilityMPH,Wind Direction,Wind SpeedMPH,Gust SpeedMPH,PrecipitationIn,Events,Conditions,WindDirDegrees,DateUTC
12:15 AM,53.6,50.0,88,30.01,6.0,North,3.5,-,0.03,,Overcast,350,2012-12-04 06:15:00
12:35 AM,53.6,50.0,88,30.02,5.0,NW,3.5,-,0.06,,Overcast,320,2012-12-04 06:35:00
12:55 AM,53.6,48.2,82,30.01,5.0,NNE,3.5,-,0.14,,Overcast,30,2012-12-04 06:55:00
1:15 AM,53.6,50.0,88,30.04,5.0,North,3.5,-,0.10,,Overcast,10,2012-12-04 07:15:00
1:35 AM,53.6,48.2,82,30.02,5.0,North,4.6,-,0.21,,Overcast,350,2012-12-04 07:35:00
1:55 AM,53.6,48.2,82,30.04,4.0,NNE,4.6,-,0.30,,Overcast,20,2012-12-04 07:55:00
2:15 AM,51.8,50.0,94,30.06,5.0,NNW,3.5,-,0.04,,Overcast,330,2012-12-04 08:15:00
2:55 AM,51.8,48.2,88,30.08,5.0,WNW,6.9,-,0.15,,Overcast,290,2012-12-04 08:55:00
3:15 AM,51.8,48.2,88,30.07,9.0,NE,10.4,16.1,0.05,,Overcast,40,2012-12-04 09:15:00
3:35 AM,51.8,46.4,82,30.08,10.0,North,4.6,-,0.05,,Overcast,10,2012-12-04 09:35:00
3:55 AM,51.8,48.2,88,30.08,8.0,Calm,Calm,-,0.07,,Overcast,0,2012-12-04 09:55:00
4:15 AM,51.8,48.2,88,30.09,8.0,Calm,Calm,-,N/A,,Overcast,0,2012-12-04 10:15:00
4:35 AM,51.8,48.2,88,30.10,6.0,Calm,Calm,-,N/A,,Overcast,0,2012-12-04 10:35:00
4:55 AM,51.8,48.2,88,30.10,8.0,North,3.5,-,N/A,,Overcast,10,2012-12-04 10:55:00
5:15 AM,51.8,46.4,82,30.10,10.0,NNE,4.6,-,N/A,,Overcast,30,2012-12-04 11:15:00
5:35 AM,51.8,46.4,82,30.12,10.0,NNW,4.6,-,N/A,,Overcast,340,2012-12-04 11:35:00
5:55 AM,50.0,44.6,82,30.12,10.0,North,5.8,-,N/A,,Overcast,360,2012-12-04 11:55:00
6:15 AM,50.0,44.6,82,30.13,10.0,North,6.9,-,N/A,,Overcast,360,2012-12-04 12:15:00
6:35 AM,50.0,42.8,76,30.15,10.0,North,3.5,-,N/A,,Overcast,350,2012-12-04 12:35:00
6:55 AM,48.2,41.0,76,30.16,10.0,North,4.6,-,N/A,,Mostly Cloudy,360,2012-12-04 12:55:00
7:15 AM,48.2,41.0,76,30.17,10.0,North,3.5,-,N/A,,Clear,350,2012-12-04 13:15:00
7:35 AM,48.2,41.0,76,30.18,10.0,North,5.8,-,N/A,,Clear,360,2012-12-04 13:35:00
7:55 AM,46.4,39.2,76,30.18,10.0,North,4.6,-,N/A,,Clear,350,2012-12-04 13:55:00
8:15 AM,48.2,39.2,71,30.20,10.0,North,3.5,-,N/A,,Clear,360,2012-12-04 14:15:00
8:35 AM,46.4,39.2,76,30.20,10.0,North,3.5,-,N/A,,Clear,10,2012-12-04 14:35:00
8:55 AM,46.4,39.2,76,30.21,10.0,North,5.8,-,N/A,,Clear,350,2012-12-04 14:55:00
9:15 AM,48.2,39.2,71,30.22,10.0,North,5.8,-,N/A,,Clear,360,2012-12-04 15:15:00
9:35 AM,48.2,39.2,71,30.23,10.0,North,4.6,-,N/A,,Clear,350,2012-12-04 15:35:00
9:55 AM,48.2,37.4,66,30.24,10.0,North,4.6,-,N/A,,Clear,350,2012-12-04 15:55:00
10:15 AM,48.2,37.4,66,30.24,10.0,North,6.9,-,N/A,,Clear,360,2012-12-04 16:15:00
10:35 AM,50.0,37.4,62,30.24,10.0,North,4.6,-,N/A,,Clear,10,2012-12-04 16:35:00
10:55 AM,50.0,37.4,62,30.25,10.0,North,5.8,-,N/A,,Clear,360,2012-12-04 16:55:00
11:15 AM,51.8,37.4,58,30.24,10.0,North,4.6,-,N/A,,Clear,360,2012-12-04 17:15:00
11:35 AM,53.6,37.4,54,30.23,10.0,ENE,8.1,-,N/A,,Clear,60,2012-12-04 17:35:00
12:15 PM,55.4,33.8,44,30.23,10.0,NNE,6.9,-,N/A,,Clear,30,2012-12-04 18:15:00
12:35 PM,55.4,35.6,47,30.23,10.0,NNE,8.1,-,N/A,,Clear,30,2012-12-04 18:35:00
12:55 PM,57.2,33.8,41,30.23,10.0,NNE,4.6,-,N/A,,Clear,20,2012-12-04 18:55:00
1:15 PM,55.4,30.2,38,30.24,10.0,NE,8.1,-,N/A,,Clear,50,2012-12-04 19:15:00
1:35 PM,57.2,32.0,38,30.23,10.0,North,4.6,-,N/A,,Clear,10,2012-12-04 19:35:00
1:55 PM,57.2,30.2,36,30.23,10.0,North,4.6,-,N/A,,Clear,360,2012-12-04 19:55:00
2:15 PM,57.2,30.2,36,30.23,10.0,North,9.2,-,N/A,,Clear,360,2012-12-04 20:15:00
2:35 PM,57.2,30.2,36,30.23,10.0,NNW,4.6,-,N/A,,Clear,340,2012-12-04 20:35:00
2:55 PM,57.2,28.4,33,30.24,10.0,NNE,4.6,-,N/A,,Clear,30,2012-12-04 20:55:00
3:15 PM,59.0,28.4,31,30.24,10.0,NNE,6.9,-,N/A,,Clear,30,2012-12-04 21:15:00
3:35 PM,57.2,28.4,33,30.25,10.0,NNE,3.5,-,N/A,,Clear,20,2012-12-04 21:35:00
3:55 PM,57.2,28.4,33,30.26,10.0,North,4.6,-,N/A,,Clear,10,2012-12-04 21:55:00
4:15 PM,57.2,28.4,33,30.26,10.0,North,5.8,-,N/A,,Clear,10,2012-12-04 22:15:00
4:35 PM,55.4,28.4,36,30.27,10.0,North,3.5,-,N/A,,Clear,360,2012-12-04 22:35:00
4:55 PM,53.6,28.4,38,30.28,10.0,North,3.5,-,N/A,,Clear,360,2012-12-04 22:55:00
5:15 PM,53.6,28.4,38,30.28,10.0,Calm,Calm,-,N/A,,Clear,0,2012-12-04 23:15:00
5:35 PM,48.2,30.2,50,30.28,10.0,North,4.6,-,N/A,,Clear,360,2012-12-04 23:35:00
5:55 PM,46.4,30.2,53,30.29,10.0,North,3.5,-,N/A,,Clear,360,2012-12-04 23:55:00
6:15 PM,44.6,30.2,57,30.30,10.0,North,3.5,-,N/A,,Clear,360,2012-12-05 00:15:00
6:35 PM,44.6,30.2,57,30.30,10.0,North,3.5,-,N/A,,Clear,350,2012-12-05 00:35:00
6:55 PM,42.8,30.2,61,30.29,10.0,North,3.5,-,N/A,,Clear,350,2012-12-05 00:55:00
7:15 PM,44.6,30.2,57,30.29,10.0,Calm,Calm,-,N/A,,Clear,0,2012-12-05 01:15:00
7:35 PM,42.8,30.2,61,30.30,10.0,Calm,Calm,-,N/A,,Clear,0,2012-12-05 01:35:00
7:55 PM,42.8,30.2,61,30.31,10.0,Calm,Calm,-,N/A,,Clear,0,2012-12-05 01:55:00
8:15 PM,41.0,28.4,61,30.31,10.0,Calm,Calm,-,N/A,,Clear,0,2012-12-05 02:15:00
8:35 PM,41.0,30.2,65,30.31,10.0,Calm,Calm,-,N/A,,Clear,0,2012-12-05 02:35:00
8:55 PM,39.2,30.2,70,30.32,10.0,Calm,Calm,-,N/A,,Clear,0,2012-12-05 02:55:00
9:15 PM,39.2,33.8,81,30.32,10.0,Calm,Calm,-,N/A,,Clear,0,2012-12-05 03:15:00
9:35 PM,37.4,30.2,75,30.33,10.0,Calm,Calm,-,N/A,,Clear,0,2012-12-05 03:35:00
9:55 PM,35.6,30.2,81,30.33,10.0,Calm,Calm,-,N/A,,Clear,0,2012-12-05 03:55:00
10:15 PM,35.6,30.2,81,30.33,10.0,Calm,Calm,-,N/A,,Clear,0,2012-12-05 04:15:00
10:35 PM,35.6,30.2,81,30.33,10.0,Calm,Calm,-,N/A,,Clear,0,2012-12-05 04:35:00
10:55 PM,35.6,30.2,81,30.33,10.0,Calm,Calm,-,N/A,,Clear,0,2012-12-05 04:55:00
11:15 PM,35.6,30.2,81,30.34,10.0,Calm,Calm,-,N/A,,Clear,0,2012-12-05 05:15:00
11:35 PM,35.6,32.0,87,30.34,10.0,Calm,Calm,-,N/A,,Clear,0,2012-12-05 05:35:00
11:55 PM,35.6,30.2,81,30.34,10.0,Calm,Calm,-,N/A,,Clear,0,2012-12-05 05:55:00